sensor_id;sensor_type;location;lat;lon;timestamp;pressure;altitude;pressure_sealevel;temperature;humidity
23619;BME280;18207;32.078;34.818;2024-03-23T00:54:31;100845.03;;;23.77;35.95
23619;BME280;18207;32.078;34.818;2024-03-23T00:56:59;100838.09;;;23.74;36.32
23619;BME280;18207;32.078;34.818;2024-03-23T00:59:27;100839.66;;;23.72;35.69
23619;BME280;18207;32.078;34.818;2024-03-23T01:01:55;100831.94;;;23.69;36.34
23619;BME280;18207;32.078;34.818;2024-03-23T01:04:22;100834.72;;;23.69;36.19
23619;BME280;18207;32.078;34.818;2024-03-23T01:06:51;100831.47;;;23.67;36.19
23619;BME280;18207;32.078;34.818;2024-03-23T01:09:20;100837.16;;;23.70;35.81
23619;BME280;18207;32.078;34.818;2024-03-23T01:11:49;100838.34;;;23.69;35.86
23619;BME280;18207;32.078;34.818;2024-03-23T01:14:16;100833.47;;;23.66;35.78
23619;BME280;18207;32.078;34.818;2024-03-23T01:16:45;100835.00;;;23.64;36.08
23619;BME280;18207;32.078;34.818;2024-03-23T01:19:12;100832.88;;;23.61;36.44
23619;BME280;18207;32.078;34.818;2024-03-23T01:21:40;100835.22;;;23.59;36.07
23619;BME280;18207;32.078;34.818;2024-03-23T01:24:07;100831.94;;;23.57;36.13
23619;BME280;18207;32.078;34.818;2024-03-23T01:26:39;100822.25;;;23.54;36.05
23619;BME280;18207;32.078;34.818;2024-03-23T01:29:06;100824.94;;;23.51;36.10
23619;BME280;18207;32.078;34.818;2024-03-23T01:31:34;100820.03;;;23.48;36.36
23619;BME280;18207;32.078;34.818;2024-03-23T01:34:02;100823.53;;;23.45;36.43
23619;BME280;18207;32.078;34.818;2024-03-23T01:36:30;100830.34;;;23.44;36.38
23619;BME280;18207;32.078;34.818;2024-03-23T01:38:57;100818.28;;;23.43;36.38
23619;BME280;18207;32.078;34.818;2024-03-23T01:41:25;100826.25;;;23.41;36.18
23619;BME280;18207;32.078;34.818;2024-03-23T01:43:55;100827.53;;;23.44;36.12
23619;BME280;18207;32.078;34.818;2024-03-23T01:46:24;100815.50;;;23.43;36.65
23619;BME280;18207;32.078;34.818;2024-03-23T01:48:51;100820.31;;;23.43;36.08
23619;BME280;18207;32.078;34.818;2024-03-23T01:51:20;100817.03;;;23.41;36.12
23619;BME280;18207;32.078;34.818;2024-03-23T01:53:48;100815.75;;;23.38;36.32
23619;BME280;18207;32.078;34.818;2024-03-23T01:56:16;100816.81;;;23.34;36.62
23619;BME280;18207;32.078;34.818;2024-03-23T01:58:43;100815.50;;;23.31;36.41
23619;BME280;18207;32.078;34.818;2024-03-23T02:01:14;100819.03;;;23.29;36.70
23619;BME280;18207;32.078;34.818;2024-03-23T02:03:41;100816.09;;;23.25;36.56
23619;BME280;18207;32.078;34.818;2024-03-23T02:06:09;100823.59;;;23.21;36.33
23619;BME280;18207;32.078;34.818;2024-03-23T02:08:37;100813.06;;;23.18;36.66
23619;BME280;18207;32.078;34.818;2024-03-23T02:11:05;100819.03;;;23.17;36.71
23619;BME280;18207;32.078;34.818;2024-03-23T02:13:33;100818.56;;;23.15;36.78
23619;BME280;18207;32.078;34.818;2024-03-23T02:16:01;100825.34;;;23.14;36.41
23619;BME280;18207;32.078;34.818;2024-03-23T02:18:31;100822.06;;;23.12;36.42
23619;BME280;18207;32.078;34.818;2024-03-23T02:20:59;100817.97;;;23.09;36.83
23619;BME280;18207;32.078;34.818;2024-03-23T02:23:28;100817.50;;;23.07;36.76
23619;BME280;18207;32.078;34.818;2024-03-23T02:25:57;100812.63;;;23.04;36.88
23619;BME280;18207;32.078;34.818;2024-03-23T02:28:24;100814.09;;;23.02;36.96
23619;BME280;18207;32.078;34.818;2024-03-23T02:30:53;100826.47;;;23.01;36.78
23619;BME280;18207;32.078;34.818;2024-03-23T02:33:20;100827.28;;;23.01;36.46
23619;BME280;18207;32.078;34.818;2024-03-23T02:35:49;100830.09;;;23.01;36.78
23619;BME280;18207;32.078;34.818;2024-03-23T02:38:16;100824.03;;;22.99;36.81
23619;BME280;18207;32.078;34.818;2024-03-23T02:40:46;100828.81;;;22.99;36.53
23619;BME280;18207;32.078;34.818;2024-03-23T02:43:14;100820.31;;;22.95;36.35
23619;BME280;18207;32.078;34.818;2024-03-23T02:45:42;100826.22;;;22.94;36.84
23619;BME280;18207;32.078;34.818;2024-03-23T02:48:09;100823.78;;;22.92;37.02
23619;BME280;18207;32.078;34.818;2024-03-23T02:50:38;100824.47;;;22.89;37.05
23619;BME280;18207;32.078;34.818;2024-03-23T02:53:05;100830.44;;;22.88;36.69
23619;BME280;18207;32.078;34.818;2024-03-23T02:55:33;100826.81;;;22.87;36.95
23619;BME280;18207;32.078;34.818;2024-03-23T02:58:17;100826.00;;;22.87;36.54
23619;BME280;18207;32.078;34.818;2024-03-23T03:00:45;100841.19;;;22.86;37.13
23619;BME280;18207;32.078;34.818;2024-03-23T03:03:12;100830.34;;;22.84;36.70
23619;BME280;18207;32.078;34.818;2024-03-23T03:05:40;100830.66;;;22.83;36.68
23619;BME280;18207;32.078;34.818;2024-03-23T03:08:08;100832.19;;;22.80;36.79
23619;BME280;18207;32.078;34.818;2024-03-23T03:10:36;100828.56;;;22.80;37.02
23619;BME280;18207;32.078;34.818;2024-03-23T03:13:04;100826.09;;;22.78;37.22
23619;BME280;18207;32.078;34.818;2024-03-23T03:15:34;100828.44;;;22.76;37.33
23619;BME280;18207;32.078;34.818;2024-03-23T03:18:01;100830.44;;;22.76;36.64
23619;BME280;18207;32.078;34.818;2024-03-23T03:20:29;100835.22;;;22.75;36.95
23619;BME280;18207;32.078;34.818;2024-03-23T03:22:58;100835.56;;;22.74;36.86
23619;BME280;18207;32.078;34.818;2024-03-23T03:25:26;100840.69;;;22.72;36.61
23619;BME280;18207;32.078;34.818;2024-03-23T03:27:54;100841.88;;;22.71;36.95
23619;BME280;18207;32.078;34.818;2024-03-23T03:30:22;100851.44;;;22.70;36.78
23619;BME280;18207;32.078;34.818;2024-03-23T03:32:54;100841.03;;;22.70;37.13
23619;BME280;18207;32.078;34.818;2024-03-23T03:35:22;100836.59;;;22.69;37.35
23619;BME280;18207;32.078;34.818;2024-03-23T03:37:50;100838.59;;;22.69;37.01
23619;BME280;18207;32.078;34.818;2024-03-23T03:40:18;100834.63;;;22.70;36.76
23619;BME280;18207;32.078;34.818;2024-03-23T03:42:45;100835.44;;;22.70;37.31
23619;BME280;18207;32.078;34.818;2024-03-23T03:45:15;100827.88;;;22.71;37.31
23619;BME280;18207;32.078;34.818;2024-03-23T03:47:43;100837.44;;;22.70;36.77
23619;BME280;18207;32.078;34.818;2024-03-23T03:50:14;100836.13;;;22.67;36.75
23619;BME280;18207;32.078;34.818;2024-03-23T03:52:41;100830.88;;;22.66;36.99
23619;BME280;18207;32.078;34.818;2024-03-23T03:55:14;100842.09;;;22.66;36.70
23619;BME280;18207;32.078;34.818;2024-03-23T03:57:41;100840.81;;;22.63;37.10
23619;BME280;18207;32.078;34.818;2024-03-23T04:00:11;100846.72;;;22.62;37.45
23619;BME280;18207;32.078;34.818;2024-03-23T04:02:43;100847.09;;;22.60;37.56
23619;BME280;18207;32.078;34.818;2024-03-23T04:05:13;100852.69;;;22.60;37.51
23619;BME280;18207;32.078;34.818;2024-03-23T04:07:41;100847.09;;;22.60;37.04
23619;BME280;18207;32.078;34.818;2024-03-23T04:10:10;100837.03;;;22.59;37.07
23619;BME280;18207;32.078;34.818;2024-03-23T04:12:38;100847.94;;;22.61;37.46
23619;BME280;18207;32.078;34.818;2024-03-23T04:15:07;100842.66;;;22.59;36.92
23619;BME280;18207;32.078;34.818;2024-03-23T04:17:35;100846.28;;;22.60;37.11
23619;BME280;18207;32.078;34.818;2024-03-23T04:20:05;100840.69;;;22.60;37.51
23619;BME280;18207;32.078;34.818;2024-03-23T04:22:38;100844.28;;;22.60;37.01
23619;BME280;18207;32.078;34.818;2024-03-23T04:25:06;100851.53;;;22.61;37.38
23619;BME280;18207;32.078;34.818;2024-03-23T04:27:34;100851.53;;;22.61;37.45
23619;BME280;18207;32.078;34.818;2024-03-23T04:30:03;100851.53;;;22.61;37.36
23619;BME280;18207;32.078;34.818;2024-03-23T04:32:36;100859.94;;;22.61;36.97
23619;BME280;18207;32.078;34.818;2024-03-23T04:35:06;100858.78;;;22.62;37.11
23619;BME280;18207;32.078;34.818;2024-03-23T04:37:38;100856.78;;;22.63;37.28
23619;BME280;18207;32.078;34.818;2024-03-23T04:40:08;100854.81;;;22.63;37.04
23619;BME280;18207;32.078;34.818;2024-03-23T04:42:38;100868.09;;;22.66;37.17
23619;BME280;18207;32.078;34.818;2024-03-23T04:45:07;100859.38;;;22.68;37.10
23619;BME280;18207;32.078;34.818;2024-03-23T04:47:38;100865.56;;;22.73;37.52
23619;BME280;18207;32.078;34.818;2024-03-23T04:50:07;100864.53;;;22.78;37.07
23619;BME280;18207;32.078;34.818;2024-03-23T04:52:41;100864.66;;;22.81;37.71
23619;BME280;18207;32.078;34.818;2024-03-23T04:55:10;100865.94;;;22.84;37.33
23619;BME280;18207;32.078;34.818;2024-03-23T04:57:38;100868.53;;;22.89;37.32
23619;BME280;18207;32.078;34.818;2024-03-23T05:00:08;100871.44;;;22.92;37.16
23619;BME280;18207;32.078;34.818;2024-03-23T05:02:44;100871.06;;;22.94;37.26
23619;BME280;18207;32.078;34.818;2024-03-23T05:05:13;100871.56;;;22.96;37.37
23619;BME280;18207;32.078;34.818;2024-03-23T05:07:42;100873.31;;;23.00;37.65
23619;BME280;18207;32.078;34.818;2024-03-23T05:10:10;100874.28;;;23.04;37.53
23619;BME280;18207;32.078;34.818;2024-03-23T05:12:38;100878.38;;;23.07;37.38
23619;BME280;18207;32.078;34.818;2024-03-23T05:15:07;100880.94;;;23.12;37.33
23619;BME280;18207;32.078;34.818;2024-03-23T05:17:34;100883.88;;;23.15;37.07
23619;BME280;18207;32.078;34.818;2024-03-23T05:20:05;100883.16;;;23.18;37.23
23619;BME280;18207;32.078;34.818;2024-03-23T05:22:36;100878.50;;;23.22;37.08
23619;BME280;18207;32.078;34.818;2024-03-23T05:25:07;100876.97;;;23.25;37.17
23619;BME280;18207;32.078;34.818;2024-03-23T05:27:36;100892.63;;;23.26;36.99
23619;BME280;18207;32.078;34.818;2024-03-23T05:30:06;100885.16;;;23.30;37.40
23619;BME280;18207;32.078;34.818;2024-03-23T05:32:34;100876.03;;;23.32;37.44
23619;BME280;18207;32.078;34.818;2024-03-23T05:35:02;100887.84;;;23.38;37.05
23619;BME280;18207;32.078;34.818;2024-03-23T05:37:29;100881.66;;;23.44;36.90
23619;BME280;18207;32.078;34.818;2024-03-23T05:40:00;100885.50;;;23.52;36.98
23619;BME280;18207;32.078;34.818;2024-03-23T05:42:29;100887.38;;;23.60;37.38
23619;BME280;18207;32.078;34.818;2024-03-23T05:44:58;100888.75;;;23.66;37.30
23619;BME280;18207;32.078;34.818;2024-03-23T05:47:25;100881.38;;;23.73;36.90
23619;BME280;18207;32.078;34.818;2024-03-23T05:49:54;100879.16;;;23.79;36.92
23619;BME280;18207;32.078;34.818;2024-03-23T05:52:21;100873.78;;;23.86;37.04
23619;BME280;18207;32.078;34.818;2024-03-23T05:54:52;100872.38;;;23.92;37.23
23619;BME280;18207;32.078;34.818;2024-03-23T05:57:19;100882.63;;;24.00;37.25
23619;BME280;18207;32.078;34.818;2024-03-23T05:59:49;100878.75;;;24.04;37.00
23619;BME280;18207;32.078;34.818;2024-03-23T06:02:16;100891.25;;;24.07;37.15
23619;BME280;18207;32.078;34.818;2024-03-23T06:04:46;100887.75;;;24.10;37.14
23619;BME280;18207;32.078;34.818;2024-03-23T06:07:13;100882.25;;;24.13;37.21
23619;BME280;18207;32.078;34.818;2024-03-23T06:09:42;100878.34;;;24.17;36.99
23619;BME280;18207;32.078;34.818;2024-03-23T06:12:09;100872.84;;;24.21;36.90
23619;BME280;18207;32.078;34.818;2024-03-23T06:14:37;100874.09;;;24.23;36.86
23619;BME280;18207;32.078;34.818;2024-03-23T06:17:06;100887.06;;;24.28;36.93
23619;BME280;18207;32.078;34.818;2024-03-23T06:19:35;100883.22;;;24.32;37.18
23619;BME280;18207;32.078;34.818;2024-03-23T06:22:02;100882.97;;;24.37;37.21
23619;BME280;18207;32.078;34.818;2024-03-23T06:24:33;100888.34;;;24.42;37.29
23619;BME280;18207;32.078;34.818;2024-03-23T06:27:00;100879.28;;;24.49;37.08
23619;BME280;18207;32.078;34.818;2024-03-23T06:29:29;100881.88;;;24.54;37.13
23619;BME280;18207;32.078;34.818;2024-03-23T06:31:56;100880.88;;;24.62;37.09
23619;BME280;18207;32.078;34.818;2024-03-23T06:34:26;100887.53;;;24.69;37.07
23619;BME280;18207;32.078;34.818;2024-03-23T06:36:54;100879.97;;;24.73;36.90
23619;BME280;18207;32.078;34.818;2024-03-23T06:39:22;100873.28;;;24.78;37.11
23619;BME280;18207;32.078;34.818;2024-03-23T06:41:53;100876.63;;;24.83;37.03
23619;BME280;18207;32.078;34.818;2024-03-23T06:44:22;100878.03;;;24.89;37.07
23619;BME280;18207;32.078;34.818;2024-03-23T06:46:49;100886.16;;;24.94;36.97
23619;BME280;18207;32.078;34.818;2024-03-23T06:49:18;100888.72;;;24.99;37.00
23619;BME280;18207;32.078;34.818;2024-03-23T06:51:52;100889.28;;;25.05;36.90
23619;BME280;18207;32.078;34.818;2024-03-23T06:54:20;100889.81;;;25.10;36.61
23619;BME280;18207;32.078;34.818;2024-03-23T06:56:49;100884.41;;;25.17;37.03
23619;BME280;18207;32.078;34.818;2024-03-23T06:59:16;100887.38;;;25.24;36.56
23619;BME280;18207;32.078;34.818;2024-03-23T07:01:44;100888.78;;;25.30;36.80
23619;BME280;18207;32.078;34.818;2024-03-23T07:04:12;100887.69;;;25.34;36.63
23619;BME280;18207;32.078;34.818;2024-03-23T07:06:43;100882.59;;;25.40;36.63
23619;BME280;18207;32.078;34.818;2024-03-23T07:09:12;100885.94;;;25.45;36.52
23619;BME280;18207;32.078;34.818;2024-03-23T07:11:41;100876.41;;;25.50;36.39
23619;BME280;18207;32.078;34.818;2024-03-23T07:14:08;100872.09;;;25.56;36.57
23619;BME280;18207;32.078;34.818;2024-03-23T07:16:38;100874.63;;;25.61;36.51
23619;BME280;18207;32.078;34.818;2024-03-23T07:19:06;100879.16;;;25.65;36.14
23619;BME280;18207;32.078;34.818;2024-03-23T07:21:34;100878.09;;;25.70;36.23
23619;BME280;18207;32.078;34.818;2024-03-23T07:24:01;100872.16;;;25.75;36.42
23619;BME280;18207;32.078;34.818;2024-03-23T07:26:31;100873.50;;;25.81;35.98
23619;BME280;18207;32.078;34.818;2024-03-23T07:28:59;100876.44;;;25.84;36.07
23619;BME280;18207;32.078;34.818;2024-03-23T07:31:27;100870.50;;;25.89;36.01
23619;BME280;18207;32.078;34.818;2024-03-23T07:33:55;100880.22;;;25.92;35.98
23619;BME280;18207;32.078;34.818;2024-03-23T07:36:23;100879.03;;;25.93;35.96
23619;BME280;18207;32.078;34.818;2024-03-23T07:38:51;100878.22;;;25.92;35.94
23619;BME280;18207;32.078;34.818;2024-03-23T07:41:20;100882.28;;;25.95;35.86
23619;BME280;18207;32.078;34.818;2024-03-23T07:43:50;100880.75;;;25.97;35.94
23619;BME280;18207;32.078;34.818;2024-03-23T07:46:18;100882.75;;;25.97;35.68
23619;BME280;18207;32.078;34.818;2024-03-23T07:48:47;100880.28;;;25.95;35.79
23619;BME280;18207;32.078;34.818;2024-03-23T07:51:18;100878.69;;;25.94;35.95
23619;BME280;18207;32.078;34.818;2024-03-23T07:53:46;100874.66;;;25.95;36.08
23619;BME280;18207;32.078;34.818;2024-03-23T07:56:16;100875.09;;;25.97;36.00
23619;BME280;18207;32.078;34.818;2024-03-23T07:58:45;100875.09;;;25.97;35.82
23619;BME280;18207;32.078;34.818;2024-03-23T08:01:16;100874.38;;;26.00;36.01
23619;BME280;18207;32.078;34.818;2024-03-23T08:03:46;100878.44;;;26.02;35.69
23619;BME280;18207;32.078;34.818;2024-03-23T08:06:15;100874.44;;;26.03;35.50
23619;BME280;18207;32.078;34.818;2024-03-23T08:08:49;100866.44;;;26.05;35.24
23619;BME280;18207;32.078;34.818;2024-03-23T08:11:17;100869.28;;;26.05;35.50
23619;BME280;18207;32.078;34.818;2024-03-23T08:13:46;100867.69;;;26.08;35.28
23619;BME280;18207;32.078;34.818;2024-03-23T08:16:14;100864.50;;;26.09;35.35
23619;BME280;18207;32.078;34.818;2024-03-23T08:18:43;100863.41;;;26.14;35.45
23619;BME280;18207;32.078;34.818;2024-03-23T08:21:11;100864.75;;;26.20;35.32
23619;BME280;18207;32.078;34.818;2024-03-23T08:23:39;100865.72;;;26.27;35.44
23619;BME280;18207;32.078;34.818;2024-03-23T08:26:10;100852.50;;;26.31;35.40
23619;BME280;18207;32.078;34.818;2024-03-23T08:28:39;100857.00;;;26.36;35.37
23619;BME280;18207;32.078;34.818;2024-03-23T08:31:08;100853.94;;;26.41;35.23
23619;BME280;18207;32.078;34.818;2024-03-23T08:33:39;100853.56;;;26.42;35.21
23619;BME280;18207;32.078;34.818;2024-03-23T08:36:10;100856.44;;;26.46;35.32
23619;BME280;18207;32.078;34.818;2024-03-23T08:38:41;100856.16;;;26.51;34.98
23619;BME280;18207;32.078;34.818;2024-03-23T08:41:09;100855.47;;;26.57;35.19
23619;BME280;18207;32.078;34.818;2024-03-23T08:43:39;100843.09;;;26.62;34.99
23619;BME280;18207;32.078;34.818;2024-03-23T08:46:09;100850.03;;;26.68;34.87
23619;BME280;18207;32.078;34.818;2024-03-23T08:48:41;100850.53;;;26.73;35.08
23619;BME280;18207;32.078;34.818;2024-03-23T08:51:12;100852.69;;;26.80;35.00
23619;BME280;18207;32.078;34.818;2024-03-23T08:53:40;100854.38;;;26.84;35.04
23619;BME280;18207;32.078;34.818;2024-03-23T08:56:09;100839.16;;;26.88;34.99
23619;BME280;18207;32.078;34.818;2024-03-23T08:58:38;100835.19;;;26.93;34.99
23619;BME280;18207;32.078;34.818;2024-03-23T09:01:08;100842.13;;;26.99;34.80
23619;BME280;18207;32.078;34.818;2024-03-23T09:03:39;100837.81;;;27.01;34.99
23619;BME280;18207;32.078;34.818;2024-03-23T09:06:08;100841.47;;;27.05;34.85
23619;BME280;18207;32.078;34.818;2024-03-23T09:08:38;100837.53;;;27.10;34.82
23619;BME280;18207;32.078;34.818;2024-03-23T09:11:07;100830.75;;;27.14;34.75
23619;BME280;18207;32.078;34.818;2024-03-23T09:13:36;100823.16;;;27.18;34.89
23619;BME280;18207;32.078;34.818;2024-03-23T09:16:05;100828.88;;;27.22;34.63
23619;BME280;18207;32.078;34.818;2024-03-23T09:18:38;100822.88;;;27.27;34.70
23619;BME280;18207;32.078;34.818;2024-03-23T09:21:12;100819.31;;;27.30;34.54
23619;BME280;18207;32.078;34.818;2024-03-23T09:23:43;100816.94;;;27.32;34.54
23619;BME280;18207;32.078;34.818;2024-03-23T09:26:10;100819.00;;;27.35;34.46
23619;BME280;18207;32.078;34.818;2024-03-23T09:28:39;100807.31;;;27.36;34.51
23619;BME280;18207;32.078;34.818;2024-03-23T09:31:07;100805.75;;;27.39;34.63
23619;BME280;18207;32.078;34.818;2024-03-23T09:33:37;100807.38;;;27.40;34.46
23619;BME280;18207;32.078;34.818;2024-03-23T09:36:06;100800.97;;;27.43;34.45
23619;BME280;18207;32.078;34.818;2024-03-23T09:38:35;100803.41;;;27.44;34.39
23619;BME280;18207;32.078;34.818;2024-03-23T09:41:08;100789.72;;;27.46;34.35
23619;BME280;18207;32.078;34.818;2024-03-23T09:43:37;100784.88;;;27.47;34.41
23619;BME280;18207;32.078;34.818;2024-03-23T09:46:04;100782.88;;;27.47;34.21
23619;BME280;18207;32.078;34.818;2024-03-23T09:48:33;100778.03;;;27.48;34.16
23619;BME280;18207;32.078;34.818;2024-03-23T09:51:03;100772.84;;;27.50;33.99
23619;BME280;18207;32.078;34.818;2024-03-23T09:53:35;100771.66;;;27.51;34.23
23619;BME280;18207;32.078;34.818;2024-03-23T09:56:04;100774.91;;;27.53;34.21
23619;BME280;18207;32.078;34.818;2024-03-23T09:58:32;100772.88;;;27.53;34.14
23619;BME280;18207;32.078;34.818;2024-03-23T10:00:59;100770.88;;;27.54;34.34
23619;BME280;18207;32.078;34.818;2024-03-23T10:03:29;100768.88;;;27.54;34.40
23619;BME280;18207;32.078;34.818;2024-03-23T10:06:04;100751.56;;;27.56;34.14
23619;BME280;18207;32.078;34.818;2024-03-23T10:08:32;100749.94;;;27.55;34.31
23619;BME280;18207;32.078;34.818;2024-03-23T10:11:14;100745.09;;;27.55;34.38
23619;BME280;18207;32.078;34.818;2024-03-23T10:13:43;100742.25;;;27.55;34.37
23619;BME280;18207;32.078;34.818;2024-03-23T10:16:21;100752.78;;;27.58;34.28
23619;BME280;18207;32.078;34.818;2024-03-23T10:18:50;100736.66;;;27.59;34.31
23619;BME280;18207;32.078;34.818;2024-03-23T10:21:19;100738.28;;;27.60;34.31
23619;BME280;18207;32.078;34.818;2024-03-23T10:23:47;100729.41;;;27.61;34.29
23619;BME280;18207;32.078;34.818;2024-03-23T10:26:19;100731.06;;;27.62;34.33
23619;BME280;18207;32.078;34.818;2024-03-23T10:28:58;100717.78;;;27.63;34.20
23619;BME280;18207;32.078;34.818;2024-03-23T10:31:27;100724.59;;;27.62;34.51
23619;BME280;18207;32.078;34.818;2024-03-23T10:33:56;100719.75;;;27.62;34.27
23619;BME280;18207;32.078;34.818;2024-03-23T10:36:25;100724.25;;;27.63;34.24
23619;BME280;18207;32.078;34.818;2024-03-23T10:38:55;100710.13;;;27.63;34.08
23619;BME280;18207;32.078;34.818;2024-03-23T10:41:23;100707.28;;;27.63;34.17
23619;BME280;18207;32.078;34.818;2024-03-23T10:43:55;100706.94;;;27.65;34.09
23619;BME280;18207;32.078;34.818;2024-03-23T10:46:24;100695.63;;;27.65;34.14
23619;BME280;18207;32.078;34.818;2024-03-23T10:48:53;100695.25;;;27.66;33.99
23619;BME280;18207;32.078;34.818;2024-03-23T10:51:20;100685.97;;;27.66;34.09
23619;BME280;18207;32.078;34.818;2024-03-23T10:53:53;100683.16;;;27.66;34.18
23619;BME280;18207;32.078;34.818;2024-03-23T10:56:23;100685.53;;;27.64;33.89
23619;BME280;18207;32.078;34.818;2024-03-23T10:58:52;100673.78;;;27.62;33.96
23619;BME280;18207;32.078;34.818;2024-03-23T11:01:20;100664.47;;;27.61;34.00
23619;BME280;18207;32.078;34.818;2024-03-23T11:03:52;100654.75;;;27.59;33.94
23619;BME280;18207;32.078;34.818;2024-03-23T11:06:36;100658.38;;;27.56;34.11
23619;BME280;18207;32.078;34.818;2024-03-23T11:09:43;100648.22;;;27.51;34.13
23619;BME280;18207;32.078;34.818;2024-03-23T11:12:29;100651.44;;;27.50;34.13
23619;BME280;18207;32.078;34.818;2024-03-23T11:15:04;100649.81;;;27.49;34.20
23619;BME280;18207;32.078;34.818;2024-03-23T11:17:32;100637.31;;;27.50;34.14
23619;BME280;18207;32.078;34.818;2024-03-23T11:20:02;100643.41;;;27.52;34.15
23619;BME280;18207;32.078;34.818;2024-03-23T11:22:43;100632.50;;;27.50;34.17
23619;BME280;18207;32.078;34.818;2024-03-23T11:25:20;100631.28;;;27.51;34.33
23619;BME280;18207;32.078;34.818;2024-03-23T11:27:48;100626.03;;;27.50;33.84
23619;BME280;18207;32.078;34.818;2024-03-23T11:30:19;100620.78;;;27.48;33.90
23619;BME280;18207;32.078;34.818;2024-03-23T11:32:48;100619.16;;;27.47;34.16
23619;BME280;18207;32.078;34.818;2024-03-23T11:35:32;100617.50;;;27.46;33.76
23619;BME280;18207;32.078;34.818;2024-03-23T11:38:11;100611.44;;;27.44;34.01
23619;BME280;18207;32.078;34.818;2024-03-23T11:40:43;100610.63;;;27.44;34.04
23619;BME280;18207;32.078;34.818;2024-03-23T11:43:13;100604.59;;;27.45;34.04
23619;BME280;18207;32.078;34.818;2024-03-23T11:45:44;100597.31;;;27.44;33.97
23619;BME280;18207;32.078;34.818;2024-03-23T11:48:13;100598.94;;;27.45;34.04
23619;BME280;18207;32.078;34.818;2024-03-23T11:50:44;100598.16;;;27.45;33.91
23619;BME280;18207;32.078;34.818;2024-03-23T11:53:16;100603.38;;;27.43;34.02
23619;BME280;18207;32.078;34.818;2024-03-23T11:55:49;100609.00;;;27.43;33.98
23619;BME280;18207;32.078;34.818;2024-03-23T11:58:18;100594.47;;;27.41;33.95
23619;BME280;18207;32.078;34.818;2024-03-23T12:00:56;100584.38;;;27.40;33.92
23619;BME280;18207;32.078;34.818;2024-03-23T12:03:25;100578.28;;;27.38;34.12
23619;BME280;18207;32.078;34.818;2024-03-23T12:05:57;100579.47;;;27.37;33.97
23619;BME280;18207;32.078;34.818;2024-03-23T12:08:29;100573.44;;;27.35;33.92
23619;BME280;18207;32.078;34.818;2024-03-23T12:11:09;100577.81;;;27.32;33.73
23619;BME280;18207;32.078;34.818;2024-03-23T12:13:39;100568.13;;;27.30;33.96
23619;BME280;18207;32.078;34.818;2024-03-23T12:16:13;100566.88;;;27.27;33.87
23619;BME280;18207;32.078;34.818;2024-03-23T12:18:42;100569.66;;;27.24;33.95
23619;BME280;18207;32.078;34.818;2024-03-23T12:21:10;100563.59;;;27.22;33.82
23619;BME280;18207;32.078;34.818;2024-03-23T12:23:40;100569.25;;;27.22;34.17
23619;BME280;18207;32.078;34.818;2024-03-23T12:26:11;100556.31;;;27.21;33.74
23619;BME280;18207;32.078;34.818;2024-03-23T12:28:39;100556.31;;;27.21;33.96
23619;BME280;18207;32.078;34.818;2024-03-23T12:31:07;100566.41;;;27.22;33.91
23619;BME280;18207;32.078;34.818;2024-03-23T12:33:34;100559.97;;;27.21;34.05
23619;BME280;18207;32.078;34.818;2024-03-23T12:36:03;100560.78;;;27.22;33.97
23619;BME280;18207;32.078;34.818;2024-03-23T12:38:34;100556.31;;;27.21;33.88
23619;BME280;18207;32.078;34.818;2024-03-23T12:41:02;100551.50;;;27.21;33.71
23619;BME280;18207;32.078;34.818;2024-03-23T12:43:33;100553.50;;;27.21;33.90
23619;BME280;18207;32.078;34.818;2024-03-23T12:46:04;100553.50;;;27.21;33.84
23619;BME280;18207;32.078;34.818;2024-03-23T12:48:31;100547.41;;;27.19;33.82
23619;BME280;18207;32.078;34.818;2024-03-23T12:51:00;100551.84;;;27.16;33.86
23619;BME280;18207;32.078;34.818;2024-03-23T12:53:27;100550.59;;;27.14;33.89
23619;BME280;18207;32.078;34.818;2024-03-23T12:55:55;100556.59;;;27.12;33.76
23619;BME280;18207;32.078;34.818;2024-03-23T12:58:23;100556.59;;;27.12;33.83
23619;BME280;18207;32.078;34.818;2024-03-23T13:00:54;100553.00;;;27.12;33.77
23619;BME280;18207;32.078;34.818;2024-03-23T13:03:21;100551.38;;;27.11;33.69
23619;BME280;18207;32.078;34.818;2024-03-23T13:05:52;100546.47;;;27.08;33.68
23619;BME280;18207;32.078;34.818;2024-03-23T13:08:21;100544.06;;;27.06;33.76
23619;BME280;18207;32.078;34.818;2024-03-23T13:10:51;100540.78;;;27.04;33.73
23619;BME280;18207;32.078;34.818;2024-03-23T13:13:20;100541.59;;;27.01;33.69
23619;BME280;18207;32.078;34.818;2024-03-23T13:15:50;100537.06;;;26.97;33.77
23619;BME280;18207;32.078;34.818;2024-03-23T13:18:20;100543.91;;;26.96;33.58
23619;BME280;18207;32.078;34.818;2024-03-23T13:20:48;100535.00;;;26.94;33.54
23619;BME280;18207;32.078;34.818;2024-03-23T13:23:16;100524.91;;;26.93;33.36
23619;BME280;18207;32.078;34.818;2024-03-23T13:25:51;100519.28;;;26.93;33.37
23619;BME280;18207;32.078;34.818;2024-03-23T13:28:20;100521.66;;;26.91;33.66
23619;BME280;18207;32.078;34.818;2024-03-23T13:30:52;100528.13;;;26.91;33.58
23619;BME280;18207;32.078;34.818;2024-03-23T13:33:22;100531.31;;;26.90;33.56
23619;BME280;18207;32.078;34.818;2024-03-23T13:35:50;100527.25;;;26.87;33.60
23619;BME280;18207;32.078;34.818;2024-03-23T13:38:19;100528.44;;;26.86;33.37
23619;BME280;18207;32.078;34.818;2024-03-23T13:40:52;100527.66;;;26.86;33.57
23619;BME280;18207;32.078;34.818;2024-03-23T13:43:20;100521.94;;;26.83;33.42
23619;BME280;18207;32.078;34.818;2024-03-23T13:45:48;100512.69;;;26.82;33.45